Time;durP1;ratioP1;P1;durP2;ratioP2;P2;SDS_P1;SDS_P2;PMS_P1;PMS_P2;Temp;Humidity;BMP_temperature;BMP_pressure;BME280_temperature;BME280_humidity;BME280_pressure;Samples;Min_cycle;Max_cycle;Signal;HPM_P1;HPM_P2
2023/06/17 00:00:41;;;;;;;;;12.00;11.00;;;;;20.10;46.44;101706.28;5044667;28;9170;-69
2023/06/17 00:03:08;;;;;;;;;12.67;12.67;;;;;20.05;46.06;101699.84;5015869;28;9402;-69
2023/06/17 00:05:35;;;;;;;;;10.67;8.33;;;;;20.00;46.36;101700.56;5023198;28;9374;-69
2023/06/17 00:08:02;;;;;;;;;12.00;9.33;;;;;19.97;46.60;101703.75;5026091;28;9304;-69
2023/06/17 00:10:29;;;;;;;;;12.33;11.00;;;;;19.93;46.83;101706.16;5026959;28;9394;-69
2023/06/17 00:12:55;;;;;;;;;8.67;8.67;;;;;19.89;47.03;101707.69;5029902;28;10175;-69
2023/06/17 00:15:22;;;;;;;;;9.33;8.67;;;;;19.85;47.10;101703.75;5032746;28;9287;-69
2023/06/17 00:17:50;;;;;;;;;11.00;9.00;;;;;19.77;47.41;101704.09;5016695;28;10329;-69
2023/06/17 00:20:17;;;;;;;;;7.67;7.33;;;;;19.71;47.76;101694.09;5018460;28;10064;-69
2023/06/17 00:22:44;;;;;;;;;12.33;10.00;;;;;19.64;47.79;101696.91;5014795;28;9231;-69
2023/06/17 00:25:12;;;;;;;;;9.00;9.00;;;;;19.60;48.03;101697.59;5035573;28;9471;-69
2023/06/17 00:27:39;;;;;;;;;11.50;11.50;;;;;19.54;47.67;101691.19;5013316;28;9376;-69
2023/06/17 00:30:07;;;;;;;;;8.67;8.67;;;;;19.49;48.12;101691.06;5029987;28;9592;-68
2023/06/17 00:32:34;;;;;;;;;12.00;11.25;;;;;19.45;48.19;101687.94;5036349;28;9474;-69
2023/06/17 00:35:05;;;;;;;;;10.00;9.00;;;;;19.42;48.49;101688.41;5032673;28;9677;-69
2023/06/17 00:37:32;;;;;;;;;10.75;8.75;;;;;19.37;48.58;101680.09;5029771;28;9637;-69
2023/06/17 00:39:58;;;;;;;;;13.00;11.25;;;;;19.33;48.91;101683.50;5013217;28;10222;-69
2023/06/17 00:42:25;;;;;;;;;6.67;6.67;;;;;19.31;48.78;101681.00;5037190;28;9728;-69
2023/06/17 00:44:52;;;;;;;;;10.33;10.33;;;;;19.33;49.08;101678.88;5038811;28;9562;-69
2023/06/17 00:47:19;;;;;;;;;10.25;10.25;;;;;19.33;49.23;101672.59;5010294;28;9415;-69
2023/06/17 00:49:47;;;;;;;;;12.67;11.00;;;;;19.29;49.08;101674.94;5021328;28;9552;-69
2023/06/17 00:52:14;;;;;;;;;9.25;9.00;;;;;19.25;49.37;101663.66;5035541;28;9454;-69
2023/06/17 00:55:01;;;;;;;;;13.25;13.00;;;;;19.20;49.68;101669.00;5025288;28;9590;-69
2023/06/17 00:57:29;;;;;;;;;11.00;10.75;;;;;19.17;49.79;101664.00;5017579;28;9578;-69
2023/06/17 00:59:56;;;;;;;;;12.00;10.75;;;;;19.15;49.96;101674.28;5018944;28;9491;-69
2023/06/17 01:02:25;;;;;;;;;14.50;9.50;;;;;19.15;49.89;101671.56;5021241;28;9565;-69
2023/06/17 01:04:53;;;;;;;;;9.25;7.75;;;;;19.16;50.19;101667.78;5026790;28;9523;-69
2023/06/17 01:07:50;;;;;;;;;8.00;7.50;;;;;19.16;50.47;101666.94;5017415;28;9527;-69
2023/06/17 01:10:24;;;;;;;;;11.75;11.75;;;;;19.14;50.29;101669.06;5035709;28;9521;-69
2023/06/17 01:12:53;;;;;;;;;11.00;10.25;;;;;19.13;50.28;101670.97;5011433;28;10215;-68
2023/06/17 01:15:21;;;;;;;;;11.25;10.75;;;;;19.09;50.34;101668.94;5009178;28;9530;-68
2023/06/17 01:17:54;;;;;;;;;12.00;11.00;;;;;19.03;50.51;101663.31;5009114;28;9518;-68
2023/06/17 01:20:22;;;;;;;;;11.00;9.25;;;;;19.03;50.92;101663.31;5033749;28;9458;-68
2023/06/17 01:22:54;;;;;;;;;11.00;10.00;;;;;19.00;50.84;101665.69;5009926;28;9675;-68
2023/06/17 01:25:29;;;;;;;;;9.50;9.50;;;;;18.95;51.10;101662.81;5017278;28;9594;-68
2023/06/17 01:27:59;;;;;;;;;10.50;10.50;;;;;18.89;50.96;101661.84;5028889;28;9679;-68
2023/06/17 01:30:29;;;;;;;;;14.50;12.75;;;;;18.85;51.34;101659.81;5038101;28;10314;-68
2023/06/17 01:32:58;;;;;;;;;11.50;11.50;;;;;18.82;51.68;101669.28;5012650;28;10435;-68
2023/06/17 01:35:31;;;;;;;;;9.50;9.50;;;;;18.77;51.58;101664.50;5030436;28;9609;-69
2023/06/17 01:38:25;;;;;;;;;13.25;13.25;;;;;18.76;51.82;101670.19;5033671;28;9696;-69
2023/06/17 01:41:01;;;;;;;;;11.50;10.25;;;;;18.71;51.81;101668.13;5032568;28;9598;-69
2023/06/17 01:43:31;;;;;;;;;10.00;9.00;;;;;18.67;52.02;101664.16;5048508;28;9534;-68
2023/06/17 01:46:00;;;;;;;;;10.50;10.00;;;;;18.63;51.88;101656.66;5048057;28;9715;-69
2023/06/17 01:48:27;;;;;;;;;12.00;10.75;;;;;18.61;51.96;101656.06;5041607;28;9604;-69
2023/06/17 01:50:53;;;;;;;;;11.75;11.25;;;;;18.61;52.33;101658.81;5028769;28;9794;-69
2023/06/17 01:53:22;;;;;;;;;13.50;13.00;;;;;18.57;52.14;101652.97;5038336;28;9739;-69
2023/06/17 01:55:51;;;;;;;;;15.00;12.75;;;;;18.56;52.33;101655.94;5038485;28;9754;-69
2023/06/17 01:58:17;;;;;;;;;14.50;12.00;;;;;18.53;52.50;101666.22;5044139;28;9750;-68
2023/06/17 02:00:44;;;;;;;;;13.50;11.00;;;;;18.52;52.52;101655.56;5040901;28;9789;-69
2023/06/17 02:03:10;;;;;;;;;11.75;11.75;;;;;18.49;52.42;101659.56;5039851;28;9772;-69
2023/06/17 02:05:37;;;;;;;;;10.25;10.25;;;;;18.47;52.67;101671.75;5050134;28;9815;-69
2023/06/17 02:08:05;;;;;;;;;11.50;11.50;;;;;18.43;52.69;101659.63;5038056;28;9863;-68
2023/06/17 02:10:32;;;;;;;;;17.75;15.25;;;;;18.38;52.81;101662.19;5047295;28;9872;-69
2023/06/17 02:13:03;;;;;;;;;11.50;11.50;;;;;18.35;53.42;101659.91;5032422;28;9865;-69
2023/06/17 02:15:31;;;;;;;;;13.00;11.50;;;;;18.34;53.51;101658.25;5048833;28;9860;-69
2023/06/17 02:17:58;;;;;;;;;12.50;11.25;;;;;18.30;53.81;101660.59;5037548;28;9847;-69
2023/06/17 02:20:25;;;;;;;;;15.25;13.75;;;;;18.28;53.49;101657.28;5029243;28;9735;-68
2023/06/17 02:22:52;;;;;;;;;14.00;12.25;;;;;18.22;53.70;101650.00;5010185;28;9914;-68
2023/06/17 02:25:21;;;;;;;;;11.50;10.50;;;;;18.21;54.14;101651.06;5008773;28;9856;-69
2023/06/17 02:27:48;;;;;;;;;12.25;12.25;;;;;18.20;54.17;101647.50;5030250;28;9786;-68
2023/06/17 02:30:14;;;;;;;;;10.25;8.25;;;;;18.17;54.11;101647.94;5035961;28;9800;-68
2023/06/17 02:32:41;;;;;;;;;10.00;8.75;;;;;18.16;54.18;101631.81;5030647;28;9710;-68
2023/06/17 02:35:08;;;;;;;;;16.00;12.75;;;;;18.13;54.21;101644.00;5048399;28;9658;-68
2023/06/17 02:37:36;;;;;;;;;10.00;9.50;;;;;18.11;54.35;101632.50;5045607;28;9849;-69
2023/06/17 02:40:08;;;;;;;;;14.00;13.00;;;;;18.09;54.52;101634.59;5041838;28;9763;-69
2023/06/17 02:42:39;;;;;;;;;13.00;13.00;;;;;18.10;54.79;101627.25;5048596;28;9781;-68
2023/06/17 02:45:07;;;;;;;;;11.00;11.00;;;;;18.11;54.55;101623.47;5049541;28;9964;-68
2023/06/17 02:47:33;;;;;;;;;15.75;14.25;;;;;18.12;54.72;101620.53;5029420;28;9797;-69
2023/06/17 02:50:00;;;;;;;;;13.25;12.50;;;;;18.13;54.54;101626.81;5032606;28;10445;-69
2023/06/17 02:52:30;;;;;;;;;12.00;12.00;;;;;18.14;54.48;101634.75;5031888;28;9862;-69
2023/06/17 02:54:57;;;;;;;;;12.25;12.00;;;;;18.08;54.82;101632.13;5028203;28;9927;-69
2023/06/17 02:57:23;;;;;;;;;15.00;12.25;;;;;18.03;55.04;101636.34;5035803;28;10753;-69
2023/06/17 02:59:50;;;;;;;;;14.25;14.00;;;;;18.00;55.41;101633.25;5041351;28;9987;-69
2023/06/17 03:02:16;;;;;;;;;12.25;12.25;;;;;17.97;55.48;101623.63;5036023;28;9732;-69
2023/06/17 03:04:43;;;;;;;;;12.00;10.75;;;;;17.94;55.54;101628.66;5029246;28;9781;-70
2023/06/17 03:07:15;;;;;;;;;13.25;13.25;;;;;17.91;55.99;101629.16;5033556;28;9874;-69
2023/06/17 03:09:43;;;;;;;;;11.25;10.75;;;;;17.87;56.20;101622.47;5040193;28;9884;-69
2023/06/17 03:12:09;;;;;;;;;13.00;13.00;;;;;17.85;56.47;101627.28;5049376;28;9706;-69
2023/06/17 03:14:36;;;;;;;;;13.75;11.75;;;;;17.81;56.73;101624.19;5048584;28;9881;-69
2023/06/17 03:17:06;;;;;;;;;13.75;13.25;;;;;17.78;56.82;101620.03;5040714;28;9680;-69
2023/06/17 03:19:33;;;;;;;;;12.50;12.50;;;;;17.76;57.05;101624.03;5039427;28;9933;-69
2023/06/17 03:22:00;;;;;;;;;13.25;13.25;;;;;17.74;56.98;101620.66;5051590;28;9867;-69
2023/06/17 03:24:30;;;;;;;;;12.00;12.00;;;;;17.71;57.12;101623.84;5051429;28;10679;-69
2023/06/17 03:26:58;;;;;;;;;19.75;16.00;;;;;17.71;57.07;101621.13;5046197;28;10641;-69
2023/06/17 03:29:25;;;;;;;;;13.25;13.25;;;;;17.72;57.03;101618.16;5039679;28;10053;-69
2023/06/17 03:31:56;;;;;;;;;16.25;16.25;;;;;17.71;56.95;101624.66;5011693;28;9934;-69
2023/06/17 03:34:25;;;;;;;;;16.00;14.00;;;;;17.68;57.35;101619.66;5011347;28;10101;-70
2023/06/17 03:36:52;;;;;;;;;14.50;14.00;;;;;17.66;57.12;101619.06;5014355;28;9849;-69
2023/06/17 03:39:19;;;;;;;;;16.75;15.75;;;;;17.66;57.21;101620.91;5019559;28;9847;-69
2023/06/17 03:41:46;;;;;;;;;18.50;16.75;;;;;17.64;57.46;101617.59;5049645;28;10907;-69
2023/06/17 03:44:13;;;;;;;;;14.00;13.00;;;;;17.64;57.47;101623.88;5034327;28;9897;-69
2023/06/17 03:46:40;;;;;;;;;18.25;16.25;;;;;17.62;57.39;101615.09;5027003;28;10091;-69
2023/06/17 03:49:06;;;;;;;;;12.50;12.00;;;;;17.62;57.32;101619.69;5039579;28;10012;-69
2023/06/17 03:51:34;;;;;;;;;15.50;15.25;;;;;17.60;57.21;101619.09;5036664;28;10597;-69
2023/06/17 03:54:02;;;;;;;;;16.00;16.00;;;;;17.59;57.56;101612.00;5041398;28;9997;-69
2023/06/17 03:56:32;;;;;;;;;16.25;15.25;;;;;17.59;57.61;101615.56;5051687;28;11083;-69
2023/06/17 03:58:59;;;;;;;;;14.50;14.50;;;;;17.58;58.30;101619.31;5050701;28;10935;-70
2023/06/17 04:01:25;;;;;;;;;14.50;14.00;;;;;17.55;58.41;101617.88;5034388;28;10093;-69
2023/06/17 04:03:52;;;;;;;;;18.50;15.25;;;;;17.54;57.91;101616.22;5050927;28;10056;-69
2023/06/17 04:06:19;;;;;;;;;13.50;10.75;;;;;17.61;58.29;101620.75;5035572;28;10169;-69
2023/06/17 04:08:46;;;;;;;;;18.25;17.00;;;;;17.76;58.27;101613.13;5049984;28;10090;-69
2023/06/17 04:11:14;;;;;;;;;15.50;15.50;;;;;17.92;58.21;101618.00;5050680;28;10014;-69
2023/06/17 04:13:41;;;;;;;;;18.25;17.00;;;;;17.94;57.78;101621.34;5050570;28;10207;-69
2023/06/17 04:16:07;;;;;;;;;16.75;16.75;;;;;17.89;58.10;101629.34;5040789;28;10122;-69
2023/06/17 04:18:34;;;;;;;;;18.25;18.25;;;;;17.85;58.25;101627.28;5048317;28;10149;-69
2023/06/17 04:21:01;;;;;;;;;20.75;20.50;;;;;17.83;58.29;101632.97;5049683;28;10315;-69
2023/06/17 04:23:30;;;;;;;;;20.00;19.75;;;;;17.81;58.49;101626.06;5034157;28;10469;-69
2023/06/17 04:25:56;;;;;;;;;16.25;16.00;;;;;17.82;58.84;101631.28;5040774;28;11117;-69
2023/06/17 04:28:23;;;;;;;;;17.00;16.00;;;;;17.82;58.71;101628.56;5046643;28;10869;-69
2023/06/17 04:30:51;;;;;;;;;21.00;19.50;;;;;17.83;59.05;101632.97;5050273;28;10022;-69
2023/06/17 04:33:18;;;;;;;;;24.00;24.00;;;;;17.84;59.33;101631.09;5033601;28;10831;-69
2023/06/17 04:35:47;;;;;;;;;22.00;19.50;;;;;17.86;59.36;101639.84;5032468;28;10207;-69
2023/06/17 04:38:14;;;;;;;;;18.25;18.00;;;;;17.87;59.47;101625.19;5045016;28;10162;-69
2023/06/17 04:40:41;;;;;;;;;22.25;19.00;;;;;17.90;60.00;101628.28;5050079;28;9952;-69
2023/06/17 04:43:09;;;;;;;;;22.75;22.25;;;;;17.92;60.38;101626.19;5050035;28;9988;-69
2023/06/17 04:45:36;;;;;;;;;24.00;22.00;;;;;17.96;60.15;101626.56;5043082;28;10105;-69
2023/06/17 04:48:05;;;;;;;;;24.50;23.50;;;;;17.97;60.94;101625.50;5027088;28;10389;-69
2023/06/17 04:50:33;;;;;;;;;20.75;20.00;;;;;18.00;61.08;101619.63;5051022;28;10165;-69
2023/06/17 04:53:03;;;;;;;;;19.50;16.75;;;;;18.02;61.13;101626.50;5043411;28;10068;-69
2023/06/17 04:55:35;;;;;;;;;24.00;19.50;;;;;18.04;61.43;101613.50;5047105;28;10354;-69
2023/06/17 04:58:04;;;;;;;;;19.00;18.75;;;;;18.08;61.58;101618.50;5049873;28;9978;-69
2023/06/17 05:00:39;;;;;;;;;17.50;14.00;;;;;18.12;61.81;101617.00;5034479;28;10017;-69
2023/06/17 05:03:06;;;;;;;;;17.25;17.25;;;;;18.14;61.60;101618.41;5039402;28;9916;-69
2023/06/17 05:05:35;;;;;;;;;21.25;18.75;;;;;18.18;62.20;101624.25;5044953;28;10025;-69
2023/06/17 05:08:03;;;;;;;;;13.75;13.75;;;;;18.21;62.24;101623.81;5049680;28;10134;-69
2023/06/17 05:10:29;;;;;;;;;17.25;17.00;;;;;18.23;62.39;101618.94;5040009;28;10093;-69
2023/06/17 05:12:56;;;;;;;;;12.00;12.00;;;;;18.27;62.03;101617.44;5040468;28;9917;-70
2023/06/17 05:15:25;;;;;;;;;14.75;14.75;;;;;18.30;62.24;101614.25;5040947;28;10581;-69
2023/06/17 05:17:52;;;;;;;;;15.75;15.25;;;;;18.32;61.77;101620.34;5049647;28;9727;-69
2023/06/17 05:20:18;;;;;;;;;13.50;13.50;;;;;18.36;61.35;101620.72;5043997;28;9988;-69
2023/06/17 05:22:46;;;;;;;;;13.00;13.00;;;;;18.39;61.40;101621.09;5040351;28;9691;-69
2023/06/17 05:25:12;;;;;;;;;11.00;11.00;;;;;18.44;61.11;101625.88;5048969;28;9755;-69
2023/06/17 05:27:39;;;;;;;;;14.25;13.25;;;;;18.50;60.92;101617.59;5032784;28;9591;-69
2023/06/17 05:30:07;;;;;;;;;16.25;16.25;;;;;18.58;60.65;101627.38;5043019;28;9714;-70
2023/06/17 05:32:34;;;;;;;;;11.00;11.00;;;;;18.74;60.39;101629.50;5019885;28;9681;-70
2023/06/17 05:35:01;;;;;;;;;14.25;11.75;;;;;18.97;59.75;101619.78;5048593;28;9762;-68
2023/06/17 05:37:31;;;;;;;;;12.75;11.75;;;;;19.19;59.04;101620.91;5048379;28;9616;-68
2023/06/17 05:39:59;;;;;;;;;9.25;8.00;;;;;19.43;57.75;101621.81;5044481;28;9668;-68
2023/06/17 05:42:26;;;;;;;;;13.75;11.00;;;;;19.59;56.61;101614.81;5040900;28;9537;-68
2023/06/17 05:44:52;;;;;;;;;10.50;10.50;;;;;19.69;55.38;101614.28;5048691;28;9543;-70
2023/06/17 05:47:19;;;;;;;;;11.00;9.00;;;;;19.82;54.65;101613.22;5050360;28;9477;-68
2023/06/17 05:49:46;;;;;;;;;13.33;12.00;;;;;19.95;55.11;101615.72;5041641;28;9473;-68
2023/06/17 05:52:12;;;;;;;;;9.00;9.00;;;;;20.06;54.97;101609.44;5038676;28;9318;-70
2023/06/17 05:54:39;;;;;;;;;11.00;11.00;;;;;20.12;54.60;101616.66;5029894;28;9324;-68
2023/06/17 05:57:05;;;;;;;;;10.67;10.67;;;;;20.16;54.39;101619.75;5029027;28;10135;-68
2023/06/17 05:59:32;;;;;;;;;9.67;9.33;;;;;20.15;53.54;101624.38;5037055;28;9389;-68
2023/06/17 06:01:58;;;;;;;;;9.33;9.33;;;;;20.11;52.53;101623.19;5029139;28;9376;-68
2023/06/17 06:04:25;;;;;;;;;12.00;12.00;;;;;20.09;52.51;101622.59;5029191;28;9898;-68
2023/06/17 06:06:52;;;;;;;;;9.33;9.33;;;;;20.09;52.93;101622.59;5016047;28;9248;-68
2023/06/17 06:09:19;;;;;;;;;7.67;7.67;;;;;20.10;53.02;101621.53;5040687;28;9239;-68
2023/06/17 06:11:46;;;;;;;;;10.00;9.33;;;;;20.09;52.59;101625.31;5049881;28;9065;-68
2023/06/17 06:14:14;;;;;;;;;9.33;7.33;;;;;20.06;51.97;101620.34;5049485;28;9243;-68
2023/06/17 06:16:45;;;;;;;;;10.33;9.67;;;;;20.02;51.73;101621.06;5044904;28;9253;-68
2023/06/17 06:19:12;;;;;;;;;10.33;10.33;;;;;20.00;51.87;101626.75;5039626;28;9232;-68
2023/06/17 06:21:38;;;;;;;;;10.33;10.33;;;;;19.98;51.80;101617.97;5031420;28;9306;-68
2023/06/17 06:24:05;;;;;;;;;12.00;12.00;;;;;19.95;50.92;101616.56;5049614;28;9341;-68
2023/06/17 06:26:36;;;;;;;;;9.00;9.00;;;;;19.95;50.44;101615.72;5046515;28;9989;-68
2023/06/17 06:29:04;;;;;;;;;11.33;11.33;;;;;19.93;49.99;101621.44;5034689;28;9186;-68
2023/06/17 06:31:31;;;;;;;;;9.67;9.67;;;;;19.90;49.94;101619.16;5011968;28;9302;-68
2023/06/17 06:33:57;;;;;;;;;9.67;9.67;;;;;19.92;49.94;101617.00;5011344;28;9160;-68
2023/06/17 06:36:24;;;;;;;;;9.00;9.00;;;;;19.96;50.16;101620.09;5041153;28;9374;-68
2023/06/17 06:38:51;;;;;;;;;9.33;9.00;;;;;19.97;50.48;101622.63;5048552;28;9246;-68
2023/06/17 06:41:18;;;;;;;;;10.00;8.00;;;;;20.00;50.55;101622.13;5048577;28;9204;-68
2023/06/17 06:43:55;;;;;;;;;13.33;11.67;;;;;20.02;50.41;101621.91;5043175;28;9336;-69
2023/06/17 06:46:22;;;;;;;;;13.33;13.33;;;;;20.06;50.43;101616.81;5043072;28;9238;-68
2023/06/17 06:48:49;;;;;;;;;11.00;11.00;;;;;20.07;50.38;101613.81;5041081;28;9379;-68
2023/06/17 06:51:16;;;;;;;;;7.33;7.33;;;;;20.10;49.79;101615.25;5041256;28;9294;-68
2023/06/17 06:53:42;;;;;;;;;9.00;9.00;;;;;20.09;49.00;101614.38;5023780;28;9312;-68
2023/06/17 06:56:09;;;;;;;;;12.00;12.00;;;;;20.09;48.47;101617.13;5045986;28;9296;-68
2023/06/17 06:58:37;;;;;;;;;15.00;10.67;;;;;20.12;48.56;101618.56;5051918;28;9441;-68
2023/06/17 07:01:05;;;;;;;;;9.00;9.00;;;;;20.17;47.98;101621.41;5048901;28;9426;-68
2023/06/17 07:03:32;;;;;;;;;9.67;8.00;;;;;20.23;47.39;101620.47;5043472;28;9358;-68
2023/06/17 07:05:59;;;;;;;;;7.67;7.67;;;;;20.25;46.95;101621.91;5052004;28;9189;-68
2023/06/17 07:08:25;;;;;;;;;12.33;12.33;;;;;20.28;48.14;101617.00;5051805;28;9080;-68
2023/06/17 07:10:52;;;;;;;;;9.00;8.00;;;;;20.31;47.96;101620.09;5050538;28;9365;-68
2023/06/17 07:13:20;;;;;;;;;9.00;8.00;;;;;20.34;47.13;101619.63;5031941;28;9086;-68
2023/06/17 07:15:50;;;;;;;;;9.00;9.00;;;;;20.35;45.99;101613.06;5042895;28;9055;-68
2023/06/17 07:18:18;;;;;;;;;9.33;9.33;;;;;20.39;45.25;101607.94;5051578;28;9210;-69
2023/06/17 07:20:44;;;;;;;;;6.00;6.00;;;;;20.44;45.16;101616.25;5051517;28;9359;-68
2023/06/17 07:23:11;;;;;;;;;8.67;8.67;;;;;20.49;44.66;101613.66;5042331;28;9087;-68
2023/06/17 07:25:38;;;;;;;;;9.00;8.00;;;;;20.52;45.05;101615.91;5022541;28;9171;-68
2023/06/17 07:28:07;;;;;;;;;8.00;8.00;;;;;20.53;45.10;101614.84;5026830;28;9253;-68
2023/06/17 07:30:34;;;;;;;;;8.67;8.33;;;;;20.58;45.21;101614.09;5051606;28;9232;-68
2023/06/17 07:33:01;;;;;;;;;7.33;7.00;;;;;20.59;45.10;101618.53;5045218;28;9837;-68
2023/06/17 07:35:28;;;;;;;;;10.00;8.00;;;;;20.63;44.82;101615.06;5043402;28;9141;-66
2023/06/17 07:37:55;;;;;;;;;6.33;6.33;;;;;20.69;44.04;101611.34;5051343;28;9223;-66
2023/06/17 07:40:22;;;;;;;;;9.33;9.33;;;;;20.73;43.48;101606.22;5051155;28;9065;-66
2023/06/17 07:42:49;;;;;;;;;8.33;8.33;;;;;20.74;44.26;101614.19;5044926;28;9312;-67
2023/06/17 07:45:16;;;;;;;;;8.67;8.67;;;;;20.73;42.79;101614.41;5042634;28;9190;-67
2023/06/17 07:47:42;;;;;;;;;6.00;5.00;;;;;20.73;42.74;101617.16;5052444;28;9242;-67
2023/06/17 07:50:09;;;;;;;;;7.33;7.33;;;;;20.73;42.53;101614.41;5052507;28;9170;-66
2023/06/17 07:52:36;;;;;;;;;11.33;8.00;;;;;20.81;42.30;101619.50;5045072;28;9189;-66
2023/06/17 07:55:04;;;;;;;;;9.67;9.00;;;;;20.86;41.25;101611.38;5045353;28;8921;-66
2023/06/17 07:57:33;;;;;;;;;9.00;7.33;;;;;20.89;41.89;101610.91;5051184;28;8984;-67
2023/06/17 08:00:00;;;;;;;;;7.00;6.33;;;;;20.91;42.29;101606.03;5043234;28;9085;-67
2023/06/17 08:02:42;;;;;;;;;8.00;7.00;;;;;20.94;42.70;101610.16;5044852;28;9069;-67
2023/06/17 08:05:09;;;;;;;;;11.33;10.00;;;;;20.98;41.61;101611.34;5039046;28;9080;-66
2023/06/17 08:07:36;;;;;;;;;9.67;9.33;;;;;21.04;39.69;101607.66;5050213;28;8935;-67
2023/06/17 08:10:03;;;;;;;;;6.00;6.00;;;;;21.05;40.35;101606.56;5050789;28;9061;-67
2023/06/17 08:12:33;;;;;;;;;7.00;7.00;;;;;21.11;39.70;101600.13;5044309;28;9061;-67
2023/06/17 08:14:59;;;;;;;;;7.00;7.00;;;;;21.14;39.65;101607.00;5044502;28;9060;-66
2023/06/17 08:17:26;;;;;;;;;8.33;6.00;;;;;21.18;39.25;101600.78;5050539;28;8951;-67
2023/06/17 08:19:52;;;;;;;;;10.00;9.00;;;;;21.22;39.29;101603.84;5051832;28;9003;-66
2023/06/17 08:22:20;;;;;;;;;8.67;8.67;;;;;21.30;39.02;101599.88;5038336;28;9060;-67
2023/06/17 08:24:46;;;;;;;;;7.00;7.00;;;;;21.39;38.87;101601.16;5039456;28;9016;-67
2023/06/17 08:27:13;;;;;;;;;11.67;10.67;;;;;21.47;38.41;101601.59;5030297;28;8998;-66
2023/06/17 08:29:40;;;;;;;;;7.75;7.25;;;;;21.57;38.94;101594.63;5030311;28;9065;-67
2023/06/17 08:32:07;;;;;;;;;13.50;11.25;;;;;21.57;38.85;101603.66;5011747;28;8932;-66
2023/06/17 08:34:35;;;;;;;;;8.75;8.00;;;;;21.58;39.57;101599.84;5018895;28;8837;-66
2023/06/17 08:37:04;;;;;;;;;15.33;11.00;;;;;21.58;38.20;101599.00;5041821;28;8830;-66
2023/06/17 08:39:31;;;;;;;;;11.33;11.00;;;;;21.64;39.22;101611.72;5047907;28;9029;-65
2023/06/17 08:41:58;;;;;;;;;5.33;5.33;;;;;21.68;39.35;101610.16;5030368;28;9001;-67
2023/06/17 08:44:26;;;;;;;;;10.00;10.00;;;;;21.67;38.92;101612.06;5035205;28;8901;-68
2023/06/17 08:46:53;;;;;;;;;9.00;8.00;;;;;21.66;38.77;101595.84;5032490;28;8923;-67
2023/06/17 08:49:21;;;;;;;;;6.50;6.50;;;;;21.70;37.63;101602.50;5041975;28;8954;-66
2023/06/17 08:51:49;;;;;;;;;9.00;8.00;;;;;21.72;37.30;101601.19;5039351;28;8829;-67
2023/06/17 08:54:18;;;;;;;;;8.67;7.67;;;;;21.78;38.04;101593.03;5031043;28;8993;-67
2023/06/17 08:56:45;;;;;;;;;7.75;7.75;;;;;21.81;37.83;101600.75;5029953;28;8912;-66
2023/06/17 08:59:11;;;;;;;;;4.00;4.00;;;;;21.85;38.17;101600.00;5029228;28;8833;-67
2023/06/17 09:01:38;;;;;;;;;7.00;7.00;;;;;21.89;38.64;101600.34;5036921;28;8843;-66
2023/06/17 09:04:05;;;;;;;;;4.00;4.00;;;;;21.95;38.84;101599.31;5041286;28;8988;-66
2023/06/17 09:06:31;;;;;;;;;4.00;4.00;;;;;22.04;39.42;101597.81;5050650;28;8860;-68
2023/06/17 09:08:58;;;;;;;;;7.25;7.25;;;;;22.11;39.22;101609.41;5049263;28;8857;-68
2023/06/17 09:11:29;;;;;;;;;9.00;9.00;;;;;22.18;39.30;101604.63;5038486;28;8935;-67
2023/06/17 09:13:58;;;;;;;;;9.75;9.75;;;;;22.18;39.47;101604.63;5009062;28;8935;-68
2023/06/17 09:16:35;;;;;;;;;9.25;9.25;;;;;22.23;39.65;101612.09;5027849;28;8826;-67
2023/06/17 09:19:12;;;;;;;;;11.33;9.67;;;;;22.35;38.80;101609.22;5019396;28;8922;-66
2023/06/17 09:21:40;;;;;;;;;8.00;8.00;;;;;22.39;38.53;101610.38;5047011;28;8988;-67
2023/06/17 09:24:11;;;;;;;;;5.50;4.75;;;;;22.41;38.67;101614.53;5029593;28;8860;-68
2023/06/17 09:26:42;;;;;;;;;8.67;8.67;;;;;22.44;38.51;101604.94;5030698;28;8844;-68
2023/06/17 09:29:13;;;;;;;;;8.25;8.00;;;;;22.45;38.72;101607.44;5041689;28;9027;-68
2023/06/17 09:31:47;;;;;;;;;11.25;9.50;;;;;22.52;38.94;101609.97;5040283;28;8930;-69
2023/06/17 09:34:14;;;;;;;;;11.00;11.00;;;;;22.57;37.58;101609.25;5050255;28;8826;-68
2023/06/17 09:36:41;;;;;;;;;10.75;9.50;;;;;22.56;38.05;101605.66;5041654;28;9025;-68
2023/06/17 09:39:12;;;;;;;;;12.67;12.00;;;;;22.46;37.56;101611.84;5037269;28;8840;-68
2023/06/17 09:41:39;;;;;;;;;9.00;9.00;;;;;22.54;37.70;101604.25;5024743;28;8960;-68
2023/06/17 09:44:07;;;;;;;;;7.75;7.75;;;;;22.60;38.28;101606.78;5016641;28;8852;-68
2023/06/17 09:46:39;;;;;;;;;9.50;9.50;;;;;22.72;37.58;101601.16;5032453;28;8836;-68
2023/06/17 09:49:09;;;;;;;;;13.00;13.00;;;;;22.81;38.01;101591.41;5033053;28;8847;-68
2023/06/17 09:51:37;;;;;;;;;9.00;8.25;;;;;22.83;38.87;101597.47;5038338;28;8921;-69
2023/06/17 09:54:06;;;;;;;;;10.00;10.00;;;;;22.91;38.35;101587.97;5028473;28;8853;-68
2023/06/17 09:56:33;;;;;;;;;10.25;8.25;;;;;22.96;37.95;101593.50;5023528;28;8843;-69
2023/06/17 09:59:00;;;;;;;;;8.75;8.75;;;;;22.93;38.83;101596.78;5010202;28;8830;-68
2023/06/17 10:01:38;;;;;;;;;11.00;11.00;;;;;23.01;38.01;101588.09;5009073;28;8954;-68
2023/06/17 10:04:07;;;;;;;;;11.75;11.50;;;;;23.10;37.94;101588.44;5013324;28;8840;-68
2023/06/17 10:06:39;;;;;;;;;9.25;9.25;;;;;23.14;38.48;101592.34;5031455;28;8917;-68
2023/06/17 10:09:08;;;;;;;;;11.67;10.67;;;;;23.24;37.12;101586.91;5035052;28;8835;-69
2023/06/17 10:11:35;;;;;;;;;11.75;10.75;;;;;23.27;37.80;101588.31;5020862;28;9390;-68
2023/06/17 10:14:14;;;;;;;;;8.75;8.75;;;;;23.30;37.80;101577.66;5021661;28;8848;-69
2023/06/17 10:16:45;;;;;;;;;7.50;7.50;;;;;23.30;38.04;101583.13;5015605;28;9594;-68
2023/06/17 10:19:16;;;;;;;;;9.75;9.00;;;;;23.29;37.17;101575.13;5015926;28;9540;-69
2023/06/17 10:21:46;;;;;;;;;12.50;9.00;;;;;23.34;37.15;101583.44;5028421;28;8839;-69
2023/06/17 10:24:15;;;;;;;;;10.25;10.25;;;;;23.43;37.05;101592.84;5028024;28;8867;-69
2023/06/17 10:26:42;;;;;;;;;9.75;8.25;;;;;23.45;36.56;101585.16;5061195;28;8841;-69
2023/06/17 10:29:10;;;;;;;;;9.00;9.00;;;;;23.51;36.22;101575.06;5023638;28;8855;-68
2023/06/17 10:31:39;;;;;;;;;9.75;8.75;;;;;23.45;36.59;101576.91;5025428;28;8909;-69
2023/06/17 10:34:08;;;;;;;;;11.25;10.50;;;;;23.48;36.81;101578.34;5018077;28;9001;-68
2023/06/17 10:36:37;;;;;;;;;11.50;11.00;;;;;23.46;35.77;101578.59;5027525;28;8836;-69
2023/06/17 10:39:06;;;;;;;;;9.50;9.50;;;;;23.54;35.55;101574.53;5037215;28;8846;-69
2023/06/17 10:41:38;;;;;;;;;12.50;11.25;;;;;23.66;36.26;101575.22;5018841;28;8913;-67
2023/06/17 10:44:20;;;;;;;;;7.75;7.75;;;;;23.77;35.76;101565.09;5027815;28;8852;-67
2023/06/17 10:46:50;;;;;;;;;8.00;8.00;;;;;23.78;35.84;101564.00;5033474;28;8828;-66
2023/06/17 10:49:18;;;;;;;;;9.50;9.50;;;;;23.84;35.90;101563.78;5033584;28;8968;-68
2023/06/17 10:51:48;;;;;;;;;9.00;9.00;;;;;23.86;34.01;101556.09;5033409;28;8847;-68
2023/06/17 10:54:28;;;;;;;;;6.00;5.75;;;;;23.79;34.46;101563.75;5032050;28;9571;-67
2023/06/17 10:56:55;;;;;;;;;9.75;8.50;;;;;23.83;34.54;101559.38;5033429;28;8833;-68
2023/06/17 10:59:25;;;;;;;;;11.00;9.25;;;;;23.90;34.65;101551.72;5038014;28;8947;-67
2023/06/17 11:01:59;;;;;;;;;7.00;7.00;;;;;23.89;33.98;101550.06;5020017;28;8863;-67
2023/06/17 11:04:32;;;;;;;;;8.75;8.75;;;;;23.88;34.99;101551.16;5020840;28;8839;-68
2023/06/17 11:07:00;;;;;;;;;11.50;7.75;;;;;23.98;33.38;101547.63;5022265;28;8878;-67
2023/06/17 11:09:28;;;;;;;;;7.75;6.75;;;;;23.99;33.88;101548.47;5017012;28;9658;-68
2023/06/17 11:11:55;;;;;;;;;6.50;6.00;;;;;24.00;34.26;101544.63;5024360;28;8884;-67
2023/06/17 11:14:25;;;;;;;;;5.50;4.25;;;;;24.01;34.24;101546.28;5020048;28;8846;-67
2023/06/17 11:16:52;;;;;;;;;9.50;9.00;;;;;24.03;33.33;101542.16;5024670;28;9566;-67
2023/06/17 11:19:19;;;;;;;;;8.50;8.50;;;;;24.12;33.06;101535.06;5034795;28;8830;-68
2023/06/17 11:21:50;;;;;;;;;8.25;8.25;;;;;24.09;34.11;101534.75;5041425;28;9536;-67
2023/06/17 11:24:17;;;;;;;;;10.00;9.25;;;;;24.16;34.01;101543.59;5037656;28;8852;-69
2023/06/17 11:26:44;;;;;;;;;9.75;9.50;;;;;24.20;34.49;101543.91;5029521;28;9042;-68